createdAt,value
2022-12-22T00:02:30.509Z,88.69
2022-12-22T00:05:17.144Z,88.79
2022-12-22T00:08:03.743Z,88.86
2022-12-22T00:10:50.341Z,88.96
2022-12-22T00:13:36.950Z,88.99
2022-12-22T00:16:23.691Z,88.97
2022-12-22T00:19:10.364Z,88.95
2022-12-22T00:21:56.659Z,88.89
2022-12-22T00:24:42.862Z,88.86
2022-12-22T00:27:35.195Z,88.84
2022-12-22T00:30:22.319Z,88.71
2022-12-22T00:33:08.710Z,88.70
2022-12-22T00:35:55.643Z,88.73
2022-12-22T00:38:42.023Z,88.81
2022-12-22T00:41:28.558Z,88.80
2022-12-22T00:44:15.200Z,88.80
2022-12-22T00:47:04.268Z,88.81
2022-12-22T00:49:53.251Z,88.84
2022-12-22T00:52:42.053Z,88.89
2022-12-22T00:55:38.955Z,89.01
2022-12-22T00:58:33.037Z,89.10
2022-12-22T01:01:20.008Z,89.14
2022-12-22T01:04:06.767Z,89.15
2022-12-22T01:06:55.129Z,89.12
2022-12-22T01:09:41.729Z,89.09
2022-12-22T01:12:40.736Z,89.05
2022-12-22T01:15:36.232Z,89.01
2022-12-22T01:18:24.465Z,89.01
2022-12-22T01:21:12.195Z,89.01
2022-12-22T01:23:59.516Z,89.00
2022-12-22T01:26:46.322Z,89.04
2022-12-22T01:29:33.244Z,89.05
2022-12-22T01:32:19.639Z,88.95
2022-12-22T01:35:06.135Z,88.98
2022-12-22T01:37:52.432Z,88.93
2022-12-22T01:40:42.061Z,88.96
2022-12-22T01:43:44.397Z,88.98
2022-12-22T01:47:04.193Z,89.06
2022-12-22T01:50:01.010Z,89.11
2022-12-22T01:52:55.321Z,89.14
2022-12-22T01:55:43.631Z,89.17
2022-12-22T01:58:41.712Z,89.22
2022-12-22T02:01:28.204Z,89.73
2022-12-22T02:04:15.185Z,89.61
2022-12-22T02:07:04.265Z,89.62
2022-12-22T02:09:57.383Z,89.54
2022-12-22T02:13:05.427Z,89.54
2022-12-22T02:15:56.884Z,89.51
2022-12-22T02:19:04.168Z,89.53
2022-12-22T02:22:16.474Z,89.51
2022-12-22T02:25:11.611Z,89.50
2022-12-22T02:28:00.538Z,89.46
2022-12-22T02:30:48.394Z,89.40
2022-12-22T02:33:35.078Z,89.35
2022-12-22T02:36:25.914Z,89.31
2022-12-22T02:39:37.574Z,89.28
2022-12-22T02:42:55.422Z,89.23
2022-12-22T02:46:19.949Z,89.22
2022-12-22T02:49:16.234Z,89.18
2022-12-22T02:52:07.701Z,89.14
2022-12-22T02:54:54.902Z,89.06
2022-12-22T02:57:41.223Z,89.08
2022-12-22T03:00:28.222Z,89.11
2022-12-22T03:03:15.240Z,89.22
2022-12-22T03:06:02.007Z,89.30
2022-12-22T03:08:48.331Z,89.31
2022-12-22T03:11:34.832Z,89.28
2022-12-22T03:14:21.518Z,89.26
2022-12-22T03:17:07.829Z,89.20
2022-12-22T03:19:54.337Z,89.18
2022-12-22T03:22:40.713Z,89.09
2022-12-22T03:25:27.839Z,89.09
2022-12-22T03:28:03.275Z,89.06
2022-12-22T03:30:31.458Z,89.08
2022-12-22T03:32:59.258Z,89.03
2022-12-22T03:35:27.178Z,89.00
2022-12-22T03:37:55.043Z,89.01
2022-12-22T03:40:22.874Z,89.06
2022-12-22T03:43:09.209Z,89.12
2022-12-22T03:45:55.516Z,89.07
2022-12-22T03:48:23.273Z,89.04
2022-12-22T03:50:51.130Z,89.00
2022-12-22T03:53:19.306Z,89.00
2022-12-22T03:55:47.170Z,88.93
2022-12-22T03:58:15.044Z,88.94
2022-12-22T04:00:43.110Z,89.00
2022-12-22T04:03:11.166Z,89.05
2022-12-22T04:05:39.245Z,88.97
2022-12-22T04:08:07.219Z,89.06
2022-12-22T04:10:53.927Z,89.17
2022-12-22T04:13:21.902Z,88.98
2022-12-22T04:15:49.860Z,88.92
2022-12-22T04:18:17.645Z,88.91
2022-12-22T04:20:45.491Z,88.95
2022-12-22T04:23:13.355Z,89.04
2022-12-22T04:25:41.223Z,88.96
2022-12-22T04:28:09.087Z,88.88
2022-12-22T04:30:36.951Z,89.01
2022-12-22T04:33:04.900Z,88.88
2022-12-22T04:35:32.784Z,88.79
2022-12-22T04:38:00.674Z,88.76
2022-12-22T04:40:28.484Z,88.77
2022-12-22T04:42:56.283Z,88.71
2022-12-22T04:45:24.096Z,88.67
2022-12-22T04:47:52.014Z,88.57
2022-12-22T04:50:19.982Z,88.64
2022-12-22T04:52:47.845Z,88.69
2022-12-22T04:55:15.731Z,88.79
2022-12-22T04:57:43.514Z,88.88
2022-12-22T05:00:12.086Z,88.95
2022-12-22T05:02:40.067Z,88.89
2022-12-22T05:05:08.624Z,88.80
2022-12-22T05:07:36.735Z,88.73
2022-12-22T05:10:05.626Z,88.68
2022-12-22T05:12:52.139Z,88.66
2022-12-22T05:15:20.496Z,88.66
2022-12-22T05:17:48.617Z,88.66
2022-12-22T05:20:16.788Z,88.67
2022-12-22T05:22:44.980Z,88.69
2022-12-22T05:25:16.693Z,88.66
2022-12-22T05:27:46.007Z,88.61
2022-12-22T05:30:14.913Z,88.59
2022-12-22T05:32:43.391Z,88.52
2022-12-22T05:35:11.809Z,88.48
2022-12-22T05:37:39.707Z,88.45
2022-12-22T05:40:08.539Z,88.45
2022-12-22T05:42:36.343Z,88.45
2022-12-22T05:45:16.435Z,88.48
2022-12-22T05:47:45.851Z,88.54
2022-12-22T05:50:15.906Z,88.55
2022-12-22T05:52:44.174Z,88.58
2022-12-22T05:55:13.275Z,88.64
2022-12-22T05:57:42.429Z,88.61
2022-12-22T06:00:15.835Z,88.63
2022-12-22T06:02:44.719Z,88.66
2022-12-22T06:05:15.233Z,88.69
2022-12-22T06:07:43.113Z,88.64
2022-12-22T06:10:13.234Z,88.68
2022-12-22T06:12:42.313Z,88.69
2022-12-22T06:15:13.167Z,88.68
2022-12-22T06:17:44.822Z,88.64
2022-12-22T06:20:14.453Z,88.60
2022-12-22T06:22:42.317Z,88.58
2022-12-22T06:25:15.607Z,88.60
2022-12-22T06:27:47.731Z,88.58
2022-12-22T06:30:16.533Z,88.56
2022-12-22T06:32:44.587Z,88.50
2022-12-22T06:35:12.471Z,88.42
2022-12-22T06:37:40.448Z,88.39
2022-12-22T06:40:09.787Z,88.38
2022-12-22T06:42:57.691Z,88.37
2022-12-22T06:45:28.598Z,88.39
2022-12-22T06:47:56.572Z,88.40
2022-12-22T06:50:24.428Z,88.31
2022-12-22T06:52:52.301Z,88.22
2022-12-22T06:55:20.386Z,88.11
2022-12-22T06:57:48.237Z,88.11
2022-12-22T07:00:16.678Z,88.02
2022-12-22T07:02:44.842Z,87.96
2022-12-22T07:05:13.164Z,87.93
2022-12-22T07:07:41.233Z,87.87
2022-12-22T07:10:10.009Z,87.93
2022-12-22T07:12:37.808Z,87.90
2022-12-22T07:15:06.471Z,87.89
2022-12-22T07:17:34.316Z,87.89
2022-12-22T07:20:02.194Z,87.88
2022-12-22T07:22:31.158Z,87.96
2022-12-22T07:24:59.567Z,87.97
2022-12-22T07:27:27.450Z,88.02
2022-12-22T07:29:55.537Z,88.05
2022-12-22T07:32:23.372Z,88.09
2022-12-22T07:34:51.245Z,88.13
2022-12-22T07:37:19.109Z,88.10
2022-12-22T07:39:46.970Z,88.09
2022-12-22T07:42:33.678Z,88.04
2022-12-22T07:45:01.491Z,87.90
2022-12-22T07:47:35.046Z,87.79
2022-12-22T07:50:22.767Z,87.76
2022-12-22T07:53:02.204Z,87.82
2022-12-22T07:55:35.524Z,87.82
2022-12-22T07:58:03.477Z,87.81
2022-12-22T08:00:31.358Z,87.87
2022-12-22T08:03:00.916Z,87.95
2022-12-22T08:05:28.979Z,87.92
2022-12-22T08:07:56.776Z,87.83
2022-12-22T08:10:24.612Z,87.78
2022-12-22T08:12:52.647Z,87.64
2022-12-22T08:15:20.676Z,87.59
2022-12-22T08:17:49.061Z,87.54
2022-12-22T08:20:17.025Z,87.43
2022-12-22T08:22:44.891Z,87.28
2022-12-22T08:25:12.873Z,87.23
2022-12-22T08:27:51.063Z,87.13
2022-12-22T08:30:18.975Z,87.16
2022-12-22T08:32:49.966Z,87.10
2022-12-22T08:35:18.150Z,87.00
2022-12-22T08:37:46.901Z,87.00
2022-12-22T08:40:25.461Z,87.04
2022-12-22T08:42:59.345Z,87.02
2022-12-22T08:45:27.323Z,87.04
2022-12-22T08:47:55.305Z,87.05
2022-12-22T08:50:23.732Z,87.12
2022-12-22T08:52:51.729Z,87.11
2022-12-22T08:55:19.603Z,87.07
2022-12-22T08:57:55.781Z,87.14
2022-12-22T09:00:25.589Z,87.11
2022-12-22T09:02:53.603Z,87.00
2022-12-22T09:05:21.919Z,86.99
2022-12-22T09:07:49.811Z,87.05
2022-12-22T09:10:17.869Z,86.98
2022-12-22T09:12:47.973Z,86.96
2022-12-22T09:15:15.941Z,86.90
2022-12-22T09:17:43.807Z,86.81
2022-12-22T09:20:12.235Z,86.69
2022-12-22T09:22:40.938Z,86.61
2022-12-22T09:25:09.669Z,86.65
2022-12-22T09:27:37.750Z,86.54
2022-12-22T09:30:07.665Z,86.56
2022-12-22T09:32:35.915Z,86.50
2022-12-22T09:35:04.242Z,86.52
2022-12-22T09:37:32.362Z,86.47
2022-12-22T09:40:00.837Z,86.36
2022-12-22T09:42:34.783Z,86.22
2022-12-22T09:45:03.459Z,86.08
2022-12-22T09:47:38.897Z,86.21
2022-12-22T09:50:15.431Z,86.28
2022-12-22T09:52:48.742Z,86.26
2022-12-22T09:55:41.523Z,86.15
2022-12-22T09:58:26.232Z,86.05
2022-12-22T10:01:32.337Z,86.13
2022-12-22T10:04:12.571Z,86.24
2022-12-22T10:06:52.012Z,86.07
2022-12-22T10:12:21.090Z,85.93
2022-12-22T10:14:51.182Z,86.16
2022-12-22T10:17:24.786Z,86.29
2022-12-22T10:19:54.753Z,86.41
2022-12-22T10:22:27.559Z,86.30
2022-12-22T10:24:55.813Z,86.24
2022-12-22T10:27:29.313Z,86.15
2022-12-22T10:30:24.511Z,85.99
2022-12-22T10:33:02.222Z,85.79
2022-12-22T10:35:48.502Z,85.56
2022-12-22T10:38:22.405Z,85.47
2022-12-22T10:41:02.822Z,85.27
2022-12-22T10:43:40.336Z,85.27
2022-12-22T10:46:08.379Z,85.18
2022-12-22T10:48:38.523Z,85.27
2022-12-22T10:51:12.060Z,85.29
2022-12-22T10:53:46.281Z,85.19
2022-12-22T10:56:29.747Z,85.17
2022-12-22T10:59:20.138Z,85.33
2022-12-22T11:01:48.330Z,85.25
2022-12-22T11:04:27.806Z,85.50
2022-12-22T11:06:58.962Z,85.30
2022-12-22T11:09:35.418Z,85.56
2022-12-22T11:12:08.610Z,85.47
2022-12-22T11:15:20.137Z,85.33
2022-12-22T11:18:10.201Z,84.65
2022-12-22T11:20:52.587Z,84.50
2022-12-22T11:23:29.477Z,84.42
2022-12-22T11:26:48.642Z,84.08
2022-12-22T11:29:16.511Z,83.83
2022-12-22T11:32:02.481Z,83.62
2022-12-22T11:35:13.356Z,83.30
2022-12-22T11:37:48.401Z,83.48
2022-12-22T11:40:33.181Z,83.31
2022-12-22T11:43:22.125Z,83.52
2022-12-22T11:46:27.513Z,83.27
2022-12-22T11:49:16.926Z,83.12
2022-12-22T11:52:26.367Z,83.02
2022-12-22T11:55:17.701Z,83.21
2022-12-22T11:58:10.688Z,83.12
2022-12-22T12:04:00.594Z,82.45
2022-12-22T12:06:28.511Z,82.00
2022-12-22T12:09:31.912Z,82.14
2022-12-22T12:12:58.191Z,82.28
2022-12-22T12:16:01.604Z,82.64
2022-12-22T12:18:32.232Z,83.08
2022-12-22T12:21:35.464Z,83.46
2022-12-22T12:24:19.916Z,83.99
2022-12-22T12:33:02.375Z,84.02
2022-12-22T12:35:50.308Z,84.13
2022-12-22T12:39:05.619Z,84.20
2022-12-22T12:41:25.922Z,84.32
2022-12-22T12:43:55.936Z,84.42
2022-12-22T12:49:58.177Z,84.61
2022-12-22T12:52:48.876Z,84.67
2022-12-22T12:55:40.940Z,84.67
2022-12-22T12:58:12.838Z,84.74
2022-12-22T13:00:48.830Z,85.02
2022-12-22T13:04:01.173Z,85.32
2022-12-22T13:06:49.832Z,85.58
2022-12-22T13:09:49.961Z,85.78
2022-12-22T13:12:40.905Z,86.01
2022-12-22T13:15:32.631Z,86.16
2022-12-22T13:18:03.244Z,86.08
2022-12-22T13:20:35.148Z,86.07
2022-12-22T13:23:11.424Z,86.02
2022-12-22T13:25:53.301Z,86.07
2022-12-22T13:28:24.159Z,86.03
2022-12-22T13:30:59.892Z,86.19
2022-12-22T13:33:31.289Z,86.23
2022-12-22T13:36:00.008Z,86.21
2022-12-22T13:38:32.356Z,86.43
2022-12-22T13:41:03.761Z,86.53
2022-12-22T13:43:33.207Z,86.62
2022-12-22T13:46:02.816Z,86.68
2022-12-22T13:48:46.301Z,86.83
2022-12-22T13:51:20.436Z,86.95
2022-12-22T13:54:11.165Z,86.99
2022-12-22T13:56:48.755Z,86.97
2022-12-22T13:59:28.847Z,87.00
2022-12-22T14:02:02.775Z,86.86
2022-12-22T14:04:31.509Z,86.90
2022-12-22T14:07:11.125Z,86.68
2022-12-22T14:09:44.426Z,86.83
2022-12-22T14:12:19.466Z,86.66
2022-12-22T14:14:49.981Z,86.53
2022-12-22T14:17:52.771Z,86.49
2022-12-22T14:20:21.453Z,86.60
2022-12-22T14:22:55.258Z,86.74
2022-12-22T14:25:30.043Z,86.62
2022-12-22T14:27:59.044Z,86.47
2022-12-22T14:30:37.997Z,86.48
2022-12-22T14:33:28.139Z,86.39
2022-12-22T14:36:07.130Z,86.48
2022-12-22T14:38:47.881Z,86.62
2022-12-22T14:41:51.562Z,86.69
2022-12-22T14:44:29.111Z,86.64
2022-12-22T14:47:12.461Z,86.70
2022-12-22T14:49:51.267Z,86.67
2022-12-22T14:52:35.437Z,86.72
2022-12-22T14:55:05.012Z,86.80
2022-12-22T14:57:39.824Z,86.86
2022-12-22T15:00:23.024Z,86.92
2022-12-22T15:02:54.704Z,86.96
2022-12-22T15:05:33.438Z,86.73
2022-12-22T15:08:07.323Z,86.71
2022-12-22T15:10:44.771Z,86.81
2022-12-22T15:13:21.545Z,86.79
2022-12-22T15:15:52.929Z,86.88
2022-12-22T15:18:26.095Z,86.94
2022-12-22T15:20:56.362Z,86.92
2022-12-22T15:23:25.036Z,87.01
2022-12-22T15:25:53.024Z,87.10
2022-12-22T15:28:21.434Z,87.21
2022-12-22T15:30:49.834Z,87.00
2022-12-22T15:33:19.446Z,86.93
2022-12-22T15:35:47.752Z,86.84
2022-12-22T15:38:21.405Z,86.86
2022-12-22T15:40:50.332Z,86.79
2022-12-22T15:46:07.705Z,86.82
2022-12-22T15:48:38.887Z,86.88
2022-12-22T15:51:11.508Z,86.77
2022-12-22T15:53:39.431Z,86.97
2022-12-22T15:56:17.573Z,86.92
2022-12-22T15:58:46.665Z,86.93
2022-12-22T16:01:14.839Z,87.01
2022-12-22T16:03:42.767Z,87.08
2022-12-22T16:06:16.390Z,87.16
2022-12-22T16:08:49.702Z,87.20
2022-12-22T16:11:18.839Z,87.11
2022-12-22T16:13:47.827Z,87.10
2022-12-22T16:16:15.933Z,87.05
2022-12-22T16:18:44.016Z,87.05
2022-12-22T16:21:18.434Z,87.04
2022-12-22T16:23:48.825Z,87.01
2022-12-22T16:26:21.069Z,86.92
2022-12-22T16:28:49.368Z,86.81
2022-12-22T16:31:20.746Z,86.86
2022-12-22T16:33:48.976Z,86.93
2022-12-22T16:36:16.844Z,86.98
2022-12-22T16:38:46.058Z,87.05
2022-12-22T16:41:24.188Z,87.11
2022-12-22T16:46:41.006Z,87.33
2022-12-22T16:49:09.608Z,87.39
2022-12-22T16:51:46.282Z,87.36
2022-12-22T16:54:14.764Z,87.27
2022-12-22T16:56:47.214Z,87.18
2022-12-22T16:59:15.297Z,87.02
2022-12-22T17:01:50.789Z,86.87
2022-12-22T17:04:29.511Z,86.85
2022-12-22T17:06:59.712Z,86.83
2022-12-22T17:09:44.042Z,86.78
2022-12-22T17:12:22.577Z,86.80
2022-12-22T17:14:52.380Z,86.79
2022-12-22T17:17:31.763Z,86.77
2022-12-22T17:20:02.342Z,86.64
2022-12-22T17:22:32.651Z,86.64
2022-12-22T17:25:03.177Z,86.62
2022-12-22T17:27:32.991Z,86.64
2022-12-22T17:30:05.483Z,86.60
2022-12-22T17:32:33.545Z,86.56
2022-12-22T17:35:01.632Z,86.53
2022-12-22T17:37:29.884Z,86.56
2022-12-22T17:40:01.866Z,86.52
2022-12-22T17:42:32.159Z,86.57
2022-12-22T17:45:00.168Z,86.58
2022-12-22T17:47:33.399Z,86.65
2022-12-22T17:50:03.252Z,86.55
2022-12-22T17:52:31.672Z,86.52
2022-12-22T17:55:00.033Z,86.47
2022-12-22T17:57:31.442Z,86.45
2022-12-22T18:00:00.870Z,86.42
2022-12-22T18:02:30.294Z,86.37
2022-12-22T18:04:58.992Z,86.33
2022-12-22T18:07:26.992Z,86.31
2022-12-22T18:09:59.884Z,86.40
2022-12-22T18:12:29.948Z,86.48
2022-12-22T18:14:58.028Z,86.47
2022-12-22T18:17:35.088Z,86.58
2022-12-22T18:20:04.353Z,86.53
2022-12-22T18:22:33.185Z,86.53
2022-12-22T18:25:01.474Z,86.40
2022-12-22T18:27:29.488Z,86.31
2022-12-22T18:29:57.564Z,86.26
2022-12-22T18:32:28.071Z,86.18
2022-12-22T18:34:56.428Z,86.12
2022-12-22T18:37:24.527Z,86.06
2022-12-22T18:39:52.739Z,86.00
2022-12-22T18:42:23.642Z,85.93
2022-12-22T18:44:52.136Z,85.89
2022-12-22T18:47:20.394Z,85.92
2022-12-22T18:49:48.620Z,85.97
2022-12-22T18:52:19.739Z,86.00
2022-12-22T18:54:49.024Z,86.04
2022-12-22T18:57:19.642Z,86.08
2022-12-22T18:59:50.492Z,86.18
2022-12-22T19:02:18.637Z,86.39
2022-12-22T19:04:47.928Z,86.47
2022-12-22T19:07:18.368Z,86.48
2022-12-22T19:09:47.152Z,86.45
2022-12-22T19:12:18.717Z,86.28
2022-12-22T19:14:54.397Z,86.16
2022-12-22T19:17:26.368Z,86.07
2022-12-22T19:19:55.403Z,86.02
2022-12-22T19:22:24.352Z,86.04
2022-12-22T19:24:57.619Z,86.16
2022-12-22T19:27:27.816Z,86.20
2022-12-22T19:30:03.600Z,86.19
2022-12-22T19:32:40.419Z,86.14
2022-12-22T19:35:23.562Z,86.16
2022-12-22T19:37:53.697Z,86.26
2022-12-22T19:40:27.797Z,86.30
2022-12-22T19:42:57.743Z,86.29
2022-12-22T19:45:27.500Z,86.19
2022-12-22T19:47:57.212Z,85.97
2022-12-22T19:50:28.723Z,85.81
2022-12-22T19:52:59.466Z,85.68
2022-12-22T19:55:32.608Z,85.63
2022-12-22T19:58:01.999Z,85.64
2022-12-22T20:00:30.136Z,85.62
2022-12-22T20:02:58.503Z,85.57
2022-12-22T20:05:31.522Z,85.55
2022-12-22T20:08:02.354Z,85.55
2022-12-22T20:10:33.622Z,85.58
2022-12-22T20:13:05.705Z,85.56
2022-12-22T20:15:39.397Z,85.56
2022-12-22T20:18:25.267Z,85.58
2022-12-22T20:21:01.576Z,85.63
2022-12-22T20:23:33.167Z,85.71
2022-12-22T20:26:04.508Z,85.87
2022-12-22T20:28:38.879Z,85.95
2022-12-22T20:31:10.938Z,85.90
2022-12-22T20:33:39.461Z,85.76
2022-12-22T20:36:15.892Z,85.74
2022-12-22T20:38:44.787Z,85.76
2022-12-22T20:41:13.288Z,85.72
2022-12-22T20:43:42.122Z,85.66
2022-12-22T20:46:28.418Z,85.57
2022-12-22T20:49:02.918Z,85.50
2022-12-22T20:51:33.768Z,85.54
2022-12-22T20:54:02.158Z,85.56
2022-12-22T20:56:40.163Z,85.55
2022-12-22T20:59:21.406Z,85.52
2022-12-22T21:01:52.309Z,85.54
2022-12-22T21:04:21.510Z,85.55
2022-12-22T21:06:52.215Z,85.53
2022-12-22T21:09:21.059Z,85.56
2022-12-22T21:11:49.452Z,85.59
2022-12-22T21:14:17.464Z,85.70
2022-12-22T21:16:45.578Z,85.87
2022-12-22T21:19:18.597Z,85.93
2022-12-22T21:21:47.218Z,85.98
2022-12-22T21:24:15.283Z,85.93
2022-12-22T21:26:47.535Z,85.86
2022-12-22T21:29:27.067Z,85.80
2022-12-22T21:31:55.021Z,85.78
2022-12-22T21:34:23.099Z,85.71
2022-12-22T21:36:58.056Z,85.71
2022-12-22T21:39:28.883Z,85.72
2022-12-22T21:42:04.790Z,85.70
2022-12-22T21:44:35.076Z,85.70
2022-12-22T21:47:03.609Z,85.71
2022-12-22T21:49:33.249Z,85.69
2022-12-22T21:52:01.105Z,85.84
2022-12-22T21:54:29.008Z,86.06
2022-12-22T21:56:56.920Z,86.27
2022-12-22T21:59:24.995Z,86.37
